Greenacres, Washington
Current Conditions -  °F | °C
As of 12:53 PM on Wednesday 26 Nov 2014 (Local Time) from KSFF Reporting Station
Haze Haze  
Wind Chill: 42°   Ceiling: 800
Heat Index: 42°   Visibility: 6mi
Dew Point: 40°   Wind: 3mph
Humidity: 92%   Direction: 30°NNE
Pressure: 30.13"   Gusts: NA
Location:  47.67°N, 117.16°W
Report Text: KSFF 262053Z 03003KT 6SM BR OVC008 06/04 A3013 RMK AO2 SLP213 T00560044 56020
Loading
Personal Weather Stations






























Interactive Weather Map New forecast layout! Learn more

10-Day Weather Forecast

Advertisements
Track Severe Weather on mobile